sensor_id;sensor_type;location;lat;lon;timestamp;pressure;altitude;pressure_sealevel;temperature
79756;BMP280;69239;50.678;12.280;2023-07-20T00:01:49;97285.22;;;17.61
79756;BMP280;69239;50.678;12.280;2023-07-20T00:04:14;97291.66;;;17.60
79756;BMP280;69239;50.678;12.280;2023-07-20T00:06:39;97269.00;;;17.43
79756;BMP280;69239;50.678;12.280;2023-07-20T00:09:08;97298.81;;;17.56
79756;BMP280;69239;50.678;12.280;2023-07-20T00:11:36;97295.75;;;17.54
79756;BMP280;69239;50.678;12.280;2023-07-20T00:14:04;97300.31;;;17.53
79756;BMP280;69239;50.678;12.280;2023-07-20T00:16:29;97292.25;;;17.46
79756;BMP280;69239;50.678;12.280;2023-07-20T00:18:55;97290.34;;;17.47
79756;BMP280;69239;50.678;12.280;2023-07-20T00:21:20;97295.66;;;17.47
79756;BMP280;69239;50.678;12.280;2023-07-20T00:23:45;97288.75;;;17.42
79756;BMP280;69239;50.678;12.280;2023-07-20T00:26:11;97288.75;;;17.42
79756;BMP280;69239;50.678;12.280;2023-07-20T00:28:36;97292.56;;;17.41
79756;BMP280;69239;50.678;12.280;2023-07-20T00:31:01;97292.16;;;17.39
79756;BMP280;69239;50.678;12.280;2023-07-20T00:40:11;97276.31;;;17.20
79756;BMP280;69239;50.678;12.280;2023-07-20T00:42:36;97275.91;;;17.18
79756;BMP280;69239;50.678;12.280;2023-07-20T00:45:02;97278.56;;;17.18
79756;BMP280;69239;50.678;12.280;2023-07-20T00:47:27;97272.44;;;17.14
79756;BMP280;69239;50.678;12.280;2023-07-20T00:49:54;97288.44;;;17.17
79756;BMP280;69239;50.678;12.280;2023-07-20T00:52:22;97285.03;;;17.17
79756;BMP280;69239;50.678;12.280;2023-07-20T00:54:49;97288.38;;;17.14
79756;BMP280;69239;50.678;12.280;2023-07-20T00:57:15;97274.28;;;17.10
79756;BMP280;69239;50.678;12.280;2023-07-20T00:59:41;97275.38;;;17.05
79756;BMP280;69239;50.678;12.280;2023-07-20T01:02:06;97275.66;;;17.00
79756;BMP280;69239;50.678;12.280;2023-07-20T01:04:32;97266.81;;;16.92
79756;BMP280;69239;50.678;12.280;2023-07-20T01:07:02;97285.88;;;16.98
79756;BMP280;69239;50.678;12.280;2023-07-20T01:09:33;97286.63;;;16.95
79756;BMP280;69239;50.678;12.280;2023-07-20T01:12:12;97278.56;;;16.91
79756;BMP280;69239;50.678;12.280;2023-07-20T01:14:38;97274.41;;;16.90
79756;BMP280;69239;50.678;12.280;2023-07-20T01:17:04;97274.69;;;16.85
79756;BMP280;69239;50.678;12.280;2023-07-20T01:19:29;97273.53;;;16.86
79756;BMP280;69239;50.678;12.280;2023-07-20T01:27:48;97273.47;;;16.79
79756;BMP280;69239;50.678;12.280;2023-07-20T01:33:04;97263.75;;;16.64
79756;BMP280;69239;50.678;12.280;2023-07-20T01:35:31;97264.09;;;16.63
79756;BMP280;69239;50.678;12.280;2023-07-20T01:37:57;97264.03;;;16.59
79756;BMP280;69239;50.678;12.280;2023-07-20T01:40:25;97275.78;;;16.58
79756;BMP280;69239;50.678;12.280;2023-07-20T01:42:51;97260.44;;;16.48
79756;BMP280;69239;50.678;12.280;2023-07-20T01:45:17;97261.13;;;16.45
79756;BMP280;69239;50.678;12.280;2023-07-20T01:47:42;97263.78;;;16.45
79756;BMP280;69239;50.678;12.280;2023-07-20T01:50:08;97266.34;;;16.38
79756;BMP280;69239;50.678;12.280;2023-07-20T01:52:34;97270.09;;;16.33
79756;BMP280;69239;50.678;12.280;2023-07-20T01:54:59;97262.75;;;16.27
79756;BMP280;69239;50.678;12.280;2023-07-20T01:57:25;97258.56;;;16.26
79756;BMP280;69239;50.678;12.280;2023-07-20T01:59:50;97263.38;;;16.20
79756;BMP280;69239;50.678;12.280;2023-07-20T02:02:15;97261.09;;;16.18
79756;BMP280;69239;50.678;12.280;2023-07-20T02:04:40;97273.66;;;16.21
79756;BMP280;69239;50.678;12.280;2023-07-20T02:07:06;97273.25;;;16.19
79756;BMP280;69239;50.678;12.280;2023-07-20T02:09:31;97270.53;;;16.16
79756;BMP280;69239;50.678;12.280;2023-07-20T02:11:56;97269.34;;;16.13
79756;BMP280;69239;50.678;12.280;2023-07-20T02:14:22;97272.69;;;16.10
79756;BMP280;69239;50.678;12.280;2023-07-20T02:16:48;97279.47;;;16.08
79756;BMP280;69239;50.678;12.280;2023-07-20T02:19:18;97282.50;;;16.06
79756;BMP280;69239;50.678;12.280;2023-07-20T02:21:44;97274.44;;;16.03
79756;BMP280;69239;50.678;12.280;2023-07-20T02:24:09;97274.34;;;15.96
79756;BMP280;69239;50.678;12.280;2023-07-20T02:26:35;97278.88;;;15.95
79756;BMP280;69239;50.678;12.280;2023-07-20T02:29:00;97276.53;;;15.90
79756;BMP280;69239;50.678;12.280;2023-07-20T02:31:25;97276.44;;;15.86
79756;BMP280;69239;50.678;12.280;2023-07-20T02:33:51;97280.13;;;15.82
79756;BMP280;69239;50.678;12.280;2023-07-20T02:36:16;97274.78;;;15.78
79756;BMP280;69239;50.678;12.280;2023-07-20T02:38:42;97272.88;;;15.79
79756;BMP280;69239;50.678;12.280;2023-07-20T02:41:07;97274.34;;;15.76
79756;BMP280;69239;50.678;12.280;2023-07-20T02:43:32;97273.94;;;15.74
79756;BMP280;69239;50.678;12.280;2023-07-20T02:45:58;97278.03;;;15.72
79756;BMP280;69239;50.678;12.280;2023-07-20T02:48:23;97270.81;;;15.69
79756;BMP280;69239;50.678;12.280;2023-07-20T02:50:48;97266.88;;;15.63
79756;BMP280;69239;50.678;12.280;2023-07-20T02:53:14;97270.22;;;15.60
79756;BMP280;69239;50.678;12.280;2023-07-20T02:55:39;97276.63;;;15.59
79756;BMP280;69239;50.678;12.280;2023-07-20T02:58:04;97283.47;;;15.60
79756;BMP280;69239;50.678;12.280;2023-07-20T03:00:30;97288.00;;;15.59
79756;BMP280;69239;50.678;12.280;2023-07-20T03:02:55;97290.31;;;15.61
79756;BMP280;69239;50.678;12.280;2023-07-20T03:05:22;97297.19;;;15.62
79756;BMP280;69239;50.678;12.280;2023-07-20T03:07:51;97295.31;;;15.62
79756;BMP280;69239;50.678;12.280;2023-07-20T03:10:16;97299.84;;;15.62
79756;BMP280;69239;50.678;12.280;2023-07-20T03:12:42;97297.97;;;15.62
79756;BMP280;69239;50.678;12.280;2023-07-20T03:15:07;97295.63;;;15.61
79756;BMP280;69239;50.678;12.280;2023-07-20T03:17:33;97308.97;;;15.64
79756;BMP280;69239;50.678;12.280;2023-07-20T03:19:59;97312.41;;;15.65
79756;BMP280;69239;50.678;12.280;2023-07-20T03:22:26;97305.56;;;15.64
79756;BMP280;69239;50.678;12.280;2023-07-20T03:24:51;97303.31;;;15.66
79756;BMP280;69239;50.678;12.280;2023-07-20T03:27:17;97310.63;;;15.69
79756;BMP280;69239;50.678;12.280;2023-07-20T03:29:43;97318.59;;;15.69
79756;BMP280;69239;50.678;12.280;2023-07-20T03:32:09;97319.41;;;15.73
79756;BMP280;69239;50.678;12.280;2023-07-20T03:34:35;97317.09;;;15.71
79756;BMP280;69239;50.678;12.280;2023-07-20T03:37:00;97310.31;;;15.74
79756;BMP280;69239;50.678;12.280;2023-07-20T03:39:26;97309.63;;;15.77
79756;BMP280;69239;50.678;12.280;2023-07-20T03:41:51;97314.47;;;15.75
79756;BMP280;69239;50.678;12.280;2023-07-20T03:44:17;97307.41;;;15.79
79756;BMP280;69239;50.678;12.280;2023-07-20T03:46:42;97308.94;;;15.80
79756;BMP280;69239;50.678;12.280;2023-07-20T03:49:07;97304.31;;;15.77
79756;BMP280;69239;50.678;12.280;2023-07-20T03:51:34;97310.44;;;15.81
79756;BMP280;69239;50.678;12.280;2023-07-20T03:54:00;97316.63;;;15.85
79756;BMP280;69239;50.678;12.280;2023-07-20T03:56:25;97307.44;;;15.82
79756;BMP280;69239;50.678;12.280;2023-07-20T03:58:51;97311.31;;;15.85
79756;BMP280;69239;50.678;12.280;2023-07-20T04:01:17;97304.50;;;15.87
79756;BMP280;69239;50.678;12.280;2023-07-20T04:03:42;97305.28;;;15.88
79756;BMP280;69239;50.678;12.280;2023-07-20T04:06:08;97315.63;;;15.93
79756;BMP280;69239;50.678;12.280;2023-07-20T04:08:33;97319.81;;;15.94
79756;BMP280;69239;50.678;12.280;2023-07-20T04:11:03;97311.16;;;15.97
79756;BMP280;69239;50.678;12.280;2023-07-20T04:13:29;97316.88;;;15.99
79756;BMP280;69239;50.678;12.280;2023-07-20T04:15:59;97310.47;;;16.00
79756;BMP280;69239;50.678;12.280;2023-07-20T04:18:25;97309.28;;;15.98
79756;BMP280;69239;50.678;12.280;2023-07-20T04:20:50;97319.97;;;16.01
79756;BMP280;69239;50.678;12.280;2023-07-20T04:23:16;97325.66;;;16.03
79756;BMP280;69239;50.678;12.280;2023-07-20T04:25:41;97319.25;;;16.04
79756;BMP280;69239;50.678;12.280;2023-07-20T04:28:07;97320.81;;;16.05
79756;BMP280;69239;50.678;12.280;2023-07-20T04:30:36;97325.38;;;16.08
79756;BMP280;69239;50.678;12.280;2023-07-20T04:33:03;97325.50;;;16.12
79756;BMP280;69239;50.678;12.280;2023-07-20T04:35:50;97324.75;;;16.15
79756;BMP280;69239;50.678;12.280;2023-07-20T04:38:16;97322.59;;;16.20
79756;BMP280;69239;50.678;12.280;2023-07-20T04:40:45;97321.91;;;16.23
79756;BMP280;69239;50.678;12.280;2023-07-20T04:43:11;97334.91;;;16.29
79756;BMP280;69239;50.678;12.280;2023-07-20T04:45:37;97330.69;;;16.28
79756;BMP280;69239;50.678;12.280;2023-07-20T04:48:02;97330.81;;;16.35
79756;BMP280;69239;50.678;12.280;2023-07-20T04:50:27;97335.84;;;16.40
79756;BMP280;69239;50.678;12.280;2023-07-20T04:52:53;97334.38;;;16.42
79756;BMP280;69239;50.678;12.280;2023-07-20T04:55:18;97325.28;;;16.43
79756;BMP280;69239;50.678;12.280;2023-07-20T04:57:43;97338.19;;;16.45
79756;BMP280;69239;50.678;12.280;2023-07-20T05:00:09;97328.31;;;16.45
79756;BMP280;69239;50.678;12.280;2023-07-20T05:02:36;97330.66;;;16.47
79756;BMP280;69239;50.678;12.280;2023-07-20T05:05:03;97328.81;;;16.51
79756;BMP280;69239;50.678;12.280;2023-07-20T05:07:30;97320.44;;;16.49
79756;BMP280;69239;50.678;12.280;2023-07-20T05:09:55;97340.69;;;16.57
79756;BMP280;69239;50.678;12.280;2023-07-20T05:12:20;97346.91;;;16.65
79756;BMP280;69239;50.678;12.280;2023-07-20T05:14:46;97346.19;;;16.68
79756;BMP280;69239;50.678;12.280;2023-07-20T05:17:11;97344.00;;;16.73
79756;BMP280;69239;50.678;12.280;2023-07-20T05:19:36;97341.03;;;16.78
79756;BMP280;69239;50.678;12.280;2023-07-20T05:22:02;97337.31;;;16.83
79756;BMP280;69239;50.678;12.280;2023-07-20T05:24:27;97347.69;;;16.91
79756;BMP280;69239;50.678;12.280;2023-07-20T05:26:53;97352.72;;;16.97
79756;BMP280;69239;50.678;12.280;2023-07-20T05:29:19;97344.47;;;17.02
79756;BMP280;69239;50.678;12.280;2023-07-20T05:31:44;97352.22;;;17.14
79756;BMP280;69239;50.678;12.280;2023-07-20T05:34:09;97347.84;;;17.25
79756;BMP280;69239;50.678;12.280;2023-07-20T05:36:35;97348.03;;;17.39
79756;BMP280;69239;50.678;12.280;2023-07-20T05:39:01;97346.56;;;17.42
79756;BMP280;69239;50.678;12.280;2023-07-20T05:41:27;97353.97;;;17.55
79756;BMP280;69239;50.678;12.280;2023-07-20T05:43:52;97346.78;;;17.59
79756;BMP280;69239;50.678;12.280;2023-07-20T05:46:17;97346.78;;;17.59
79756;BMP280;69239;50.678;12.280;2023-07-20T05:48:43;97355.19;;;17.61
79756;BMP280;69239;50.678;12.280;2023-07-20T05:51:08;97345.38;;;17.69
79756;BMP280;69239;50.678;12.280;2023-07-20T05:53:35;97351.22;;;17.82
79756;BMP280;69239;50.678;12.280;2023-07-20T05:56:00;97354.78;;;17.93
79756;BMP280;69239;50.678;12.280;2023-07-20T05:58:25;97358.72;;;18.03
79756;BMP280;69239;50.678;12.280;2023-07-20T06:00:53;97354.97;;;18.11
79756;BMP280;69239;50.678;12.280;2023-07-20T06:03:18;97354.72;;;18.19
79756;BMP280;69239;50.678;12.280;2023-07-20T06:05:46;97357.41;;;18.23
79756;BMP280;69239;50.678;12.280;2023-07-20T06:08:12;97357.88;;;18.28
79756;BMP280;69239;50.678;12.280;2023-07-20T06:10:37;97355.25;;;18.36
79756;BMP280;69239;50.678;12.280;2023-07-20T06:13:02;97351.47;;;18.40
79756;BMP280;69239;50.678;12.280;2023-07-20T06:15:31;97356.03;;;18.40
79756;BMP280;69239;50.678;12.280;2023-07-20T06:17:57;97362.91;;;18.41
79756;BMP280;69239;50.678;12.280;2023-07-20T06:20:23;97356.44;;;18.38
79756;BMP280;69239;50.678;12.280;2023-07-20T06:22:49;97353.38;;;18.40
79756;BMP280;69239;50.678;12.280;2023-07-20T06:25:14;97358.78;;;18.43
79756;BMP280;69239;50.678;12.280;2023-07-20T06:27:40;97355.72;;;18.45
79756;BMP280;69239;50.678;12.280;2023-07-20T06:30:06;97356.13;;;18.47
79756;BMP280;69239;50.678;12.280;2023-07-20T06:32:31;97363.78;;;18.55
79756;BMP280;69239;50.678;12.280;2023-07-20T06:34:57;97361.16;;;18.59
79756;BMP280;69239;50.678;12.280;2023-07-20T06:37:23;97358.50;;;18.62
79756;BMP280;69239;50.678;12.280;2023-07-20T06:39:49;97366.25;;;18.75
79756;BMP280;69239;50.678;12.280;2023-07-20T06:42:14;97372.03;;;18.80
79756;BMP280;69239;50.678;12.280;2023-07-20T06:44:39;97360.63;;;18.87
79756;BMP280;69239;50.678;12.280;2023-07-20T06:47:05;97365.59;;;18.88
79756;BMP280;69239;50.678;12.280;2023-07-20T06:49:30;97363.38;;;18.97
79756;BMP280;69239;50.678;12.280;2023-07-20T06:51:56;97360.38;;;19.02
79756;BMP280;69239;50.678;12.280;2023-07-20T06:54:21;97363.88;;;19.14
79756;BMP280;69239;50.678;12.280;2023-07-20T06:56:47;97367.03;;;19.30
79756;BMP280;69239;50.678;12.280;2023-07-20T06:59:12;97363.66;;;19.47
79756;BMP280;69239;50.678;12.280;2023-07-20T07:01:37;97371.38;;;19.63
79756;BMP280;69239;50.678;12.280;2023-07-20T07:04:04;97368.00;;;19.76
79756;BMP280;69239;50.678;12.280;2023-07-20T07:06:30;97369.16;;;19.83
79756;BMP280;69239;50.678;12.280;2023-07-20T07:08:56;97366.94;;;19.92
79756;BMP280;69239;50.678;12.280;2023-07-20T07:11:22;97357.75;;;19.96
79756;BMP280;69239;50.678;12.280;2023-07-20T07:13:48;97369.25;;;20.00
79756;BMP280;69239;50.678;12.280;2023-07-20T07:16:16;97360.44;;;19.96
79756;BMP280;69239;50.678;12.280;2023-07-20T07:18:44;97356.59;;;19.94
79756;BMP280;69239;50.678;12.280;2023-07-20T07:21:10;97361.56;;;19.95
79756;BMP280;69239;50.678;12.280;2023-07-20T07:23:35;97352.78;;;19.95
79756;BMP280;69239;50.678;12.280;2023-07-20T07:26:00;97350.13;;;19.98
79756;BMP280;69239;50.678;12.280;2023-07-20T07:28:26;97358.56;;;20.04
79756;BMP280;69239;50.678;12.280;2023-07-20T07:30:51;97357.00;;;20.10
79756;BMP280;69239;50.678;12.280;2023-07-20T07:33:16;97353.25;;;20.22
79756;BMP280;69239;50.678;12.280;2023-07-20T07:35:42;97354.78;;;20.51
79756;BMP280;69239;50.678;12.280;2023-07-20T07:38:07;97350.19;;;20.80
79756;BMP280;69239;50.678;12.280;2023-07-20T07:40:32;97349.34;;;21.18
79756;BMP280;69239;50.678;12.280;2023-07-20T07:42:58;97351.50;;;21.66
79756;BMP280;69239;50.678;12.280;2023-07-20T07:45:23;97350.47;;;22.08
79756;BMP280;69239;50.678;12.280;2023-07-20T07:47:49;97355.69;;;22.26
79756;BMP280;69239;50.678;12.280;2023-07-20T07:50:14;97354.88;;;22.36
79756;BMP280;69239;50.678;12.280;2023-07-20T07:52:39;97365.13;;;22.41
79756;BMP280;69239;50.678;12.280;2023-07-20T07:55:05;97364.66;;;22.53
79756;BMP280;69239;50.678;12.280;2023-07-20T07:57:31;97356.06;;;22.72
79756;BMP280;69239;50.678;12.280;2023-07-20T07:59:56;97350.78;;;23.03
79756;BMP280;69239;50.678;12.280;2023-07-20T08:02:21;97362.34;;;23.34
79756;BMP280;69239;50.678;12.280;2023-07-20T08:04:47;97356.63;;;23.59
79756;BMP280;69239;50.678;12.280;2023-07-20T08:07:12;97359.50;;;23.75
79756;BMP280;69239;50.678;12.280;2023-07-20T08:09:37;97364.16;;;23.98
79756;BMP280;69239;50.678;12.280;2023-07-20T08:12:03;97358.19;;;24.13
79756;BMP280;69239;50.678;12.280;2023-07-20T08:14:29;97357.84;;;24.35
79756;BMP280;69239;50.678;12.280;2023-07-20T08:16:54;97357.28;;;24.66
79756;BMP280;69239;50.678;12.280;2023-07-20T08:19:20;97353.16;;;25.01
79756;BMP280;69239;50.678;12.280;2023-07-20T08:21:45;97347.91;;;25.14
79756;BMP280;69239;50.678;12.280;2023-07-20T08:24:10;97346.34;;;25.17
79756;BMP280;69239;50.678;12.280;2023-07-20T08:26:36;97350.81;;;25.03
79756;BMP280;69239;50.678;12.280;2023-07-20T08:29:01;97356.84;;;24.91
79756;BMP280;69239;50.678;12.280;2023-07-20T08:31:27;97354.59;;;24.86
79756;BMP280;69239;50.678;12.280;2023-07-20T08:33:53;97361.25;;;25.01
79756;BMP280;69239;50.678;12.280;2023-07-20T08:36:18;97347.16;;;25.33
79756;BMP280;69239;50.678;12.280;2023-07-20T08:38:44;97355.00;;;25.80
79756;BMP280;69239;50.678;12.280;2023-07-20T08:41:09;97345.97;;;26.03
79756;BMP280;69239;50.678;12.280;2023-07-20T08:43:37;97349.22;;;26.26
79756;BMP280;69239;50.678;12.280;2023-07-20T08:46:03;97346.25;;;26.53
79756;BMP280;69239;50.678;12.280;2023-07-20T08:48:30;97347.09;;;26.79
79756;BMP280;69239;50.678;12.280;2023-07-20T08:50:56;97347.66;;;26.87
79756;BMP280;69239;50.678;12.280;2023-07-20T08:53:23;97354.13;;;26.89
79756;BMP280;69239;50.678;12.280;2023-07-20T08:55:50;97348.28;;;26.78
79756;BMP280;69239;50.678;12.280;2023-07-20T08:58:17;97353.22;;;26.80
79756;BMP280;69239;50.678;12.280;2023-07-20T09:00:43;97346.34;;;26.79
79756;BMP280;69239;50.678;12.280;2023-07-20T09:03:08;97351.63;;;26.82
79756;BMP280;69239;50.678;12.280;2023-07-20T09:05:35;97352.59;;;26.76
79756;BMP280;69239;50.678;12.280;2023-07-20T09:08:00;97361.56;;;26.72
79756;BMP280;69239;50.678;12.280;2023-07-20T09:10:28;97365.09;;;26.69
79756;BMP280;69239;50.678;12.280;2023-07-20T09:12:54;97366.69;;;26.67
79756;BMP280;69239;50.678;12.280;2023-07-20T09:15:21;97361.16;;;26.58
79756;BMP280;69239;50.678;12.280;2023-07-20T09:17:48;97359.41;;;26.51
79756;BMP280;69239;50.678;12.280;2023-07-20T09:20:15;97355.06;;;26.70
79756;BMP280;69239;50.678;12.280;2023-07-20T09:22:42;97361.44;;;27.05
79756;BMP280;69239;50.678;12.280;2023-07-20T09:25:18;97354.03;;;27.47
79756;BMP280;69239;50.678;12.280;2023-07-20T09:27:48;97357.00;;;27.87
79756;BMP280;69239;50.678;12.280;2023-07-20T09:30:15;97351.13;;;28.14
79756;BMP280;69239;50.678;12.280;2023-07-20T09:32:48;97358.06;;;28.36
79756;BMP280;69239;50.678;12.280;2023-07-20T09:35:17;97360.16;;;28.54
79756;BMP280;69239;50.678;12.280;2023-07-20T09:38:01;97358.66;;;28.75
79756;BMP280;69239;50.678;12.280;2023-07-20T09:40:28;97350.91;;;28.86
79756;BMP280;69239;50.678;12.280;2023-07-20T09:42:54;97363.28;;;28.87
79756;BMP280;69239;50.678;12.280;2023-07-20T09:45:35;97352.22;;;29.03
79756;BMP280;69239;50.678;12.280;2023-07-20T09:48:07;97340.84;;;29.17
79756;BMP280;69239;50.678;12.280;2023-07-20T09:50:48;97344.97;;;29.40
79756;BMP280;69239;50.678;12.280;2023-07-20T09:53:14;97345.19;;;29.46
79756;BMP280;69239;50.678;12.280;2023-07-20T09:55:44;97352.94;;;29.35
79756;BMP280;69239;50.678;12.280;2023-07-20T09:58:09;97351.66;;;29.08
79756;BMP280;69239;50.678;12.280;2023-07-20T10:00:40;97357.84;;;28.87
79756;BMP280;69239;50.678;12.280;2023-07-20T10:03:10;97351.44;;;28.72
79756;BMP280;69239;50.678;12.280;2023-07-20T10:05:39;97350.75;;;28.59
79756;BMP280;69239;50.678;12.280;2023-07-20T10:08:11;97349.72;;;28.44
79756;BMP280;69239;50.678;12.280;2023-07-20T10:10:38;97366.44;;;28.29
79756;BMP280;69239;50.678;12.280;2023-07-20T10:13:07;97366.50;;;28.17
79756;BMP280;69239;50.678;12.280;2023-07-20T10:15:46;97358.41;;;28.04
79756;BMP280;69239;50.678;12.280;2023-07-20T10:18:18;97359.81;;;27.96
79756;BMP280;69239;50.678;12.280;2023-07-20T10:20:47;97360.66;;;27.93
79756;BMP280;69239;50.678;12.280;2023-07-20T10:23:13;97357.94;;;28.18
79756;BMP280;69239;50.678;12.280;2023-07-20T10:25:39;97355.47;;;28.46
79756;BMP280;69239;50.678;12.280;2023-07-20T10:28:06;97347.81;;;28.66
79756;BMP280;69239;50.678;12.280;2023-07-20T10:30:34;97350.34;;;28.69
79756;BMP280;69239;50.678;12.280;2023-07-20T10:33:01;97353.22;;;28.66
79756;BMP280;69239;50.678;12.280;2023-07-20T10:35:27;97357.78;;;28.56
79756;BMP280;69239;50.678;12.280;2023-07-20T10:38:02;97347.91;;;28.40
79756;BMP280;69239;50.678;12.280;2023-07-20T10:40:37;97344.78;;;28.29
79756;BMP280;69239;50.678;12.280;2023-07-20T10:43:08;97346.94;;;28.34
79756;BMP280;69239;50.678;12.280;2023-07-20T10:45:49;97344.28;;;28.44
79756;BMP280;69239;50.678;12.280;2023-07-20T10:48:18;97344.69;;;28.55
79756;BMP280;69239;50.678;12.280;2023-07-20T10:50:45;97332.84;;;28.61
79756;BMP280;69239;50.678;12.280;2023-07-20T10:53:12;97333.13;;;28.63
79756;BMP280;69239;50.678;12.280;2023-07-20T10:55:41;97336.88;;;28.57
79756;BMP280;69239;50.678;12.280;2023-07-20T10:58:12;97337.78;;;28.54
79756;BMP280;69239;50.678;12.280;2023-07-20T11:00:56;97341.03;;;28.70
79756;BMP280;69239;50.678;12.280;2023-07-20T11:03:38;97328.53;;;28.95
79756;BMP280;69239;50.678;12.280;2023-07-20T11:08:49;97325.88;;;29.44
79756;BMP280;69239;50.678;12.280;2023-07-20T11:11:29;97309.78;;;29.58
79756;BMP280;69239;50.678;12.280;2023-07-20T11:14:03;97324.44;;;29.79
79756;BMP280;69239;50.678;12.280;2023-07-20T11:16:45;97308.16;;;29.97
79756;BMP280;69239;50.678;12.280;2023-07-20T11:21:47;97312.56;;;30.13
79756;BMP280;69239;50.678;12.280;2023-07-20T11:24:14;97309.84;;;29.95
79756;BMP280;69239;50.678;12.280;2023-07-20T11:26:46;97316.31;;;29.88
79756;BMP280;69239;50.678;12.280;2023-07-20T11:29:13;97312.66;;;29.73
79756;BMP280;69239;50.678;12.280;2023-07-20T11:31:40;97345.19;;;29.46
79756;BMP280;69239;50.678;12.280;2023-07-20T11:34:09;97371.41;;;29.18
79756;BMP280;69239;50.678;12.280;2023-07-20T11:36:36;97369.00;;;28.89
79756;BMP280;69239;50.678;12.280;2023-07-20T11:39:02;97378.59;;;28.59
79756;BMP280;69239;50.678;12.280;2023-07-20T11:41:29;97392.00;;;28.28
79756;BMP280;69239;50.678;12.280;2023-07-20T11:43:55;97401.81;;;28.01
79756;BMP280;69239;50.678;12.280;2023-07-20T11:46:21;97398.59;;;27.68
79756;BMP280;69239;50.678;12.280;2023-07-20T11:48:46;97400.09;;;27.43
79756;BMP280;69239;50.678;12.280;2023-07-20T11:51:16;97393.66;;;27.12
79756;BMP280;69239;50.678;12.280;2023-07-20T11:53:43;97399.44;;;26.85
79756;BMP280;69239;50.678;12.280;2023-07-20T11:56:09;97394.47;;;26.67
79756;BMP280;69239;50.678;12.280;2023-07-20T11:58:35;97394.03;;;26.56
79756;BMP280;69239;50.678;12.280;2023-07-20T12:01:01;97389.09;;;26.51
79756;BMP280;69239;50.678;12.280;2023-07-20T12:03:27;97388.97;;;26.42
79756;BMP280;69239;50.678;12.280;2023-07-20T12:05:52;97390.66;;;26.36
79756;BMP280;69239;50.678;12.280;2023-07-20T12:08:18;97380.69;;;26.49
79756;BMP280;69239;50.678;12.280;2023-07-20T12:10:43;97381.50;;;26.91
79756;BMP280;69239;50.678;12.280;2023-07-20T12:13:10;97380.53;;;27.52
79756;BMP280;69239;50.678;12.280;2023-07-20T12:15:37;97381.34;;;27.99
79756;BMP280;69239;50.678;12.280;2023-07-20T12:18:03;97376.03;;;28.43
79756;BMP280;69239;50.678;12.280;2023-07-20T12:20:30;97385.75;;;28.75
79756;BMP280;69239;50.678;12.280;2023-07-20T12:22:57;97376.69;;;28.91
79756;BMP280;69239;50.678;12.280;2023-07-20T12:25:23;97365.78;;;29.03
79756;BMP280;69239;50.678;12.280;2023-07-20T12:27:48;97379.41;;;29.21
79756;BMP280;69239;50.678;12.280;2023-07-20T12:30:14;97380.13;;;29.44
79756;BMP280;69239;50.678;12.280;2023-07-20T12:32:40;97384.72;;;29.65
79756;BMP280;69239;50.678;12.280;2023-07-20T12:35:05;97382.34;;;29.76
79756;BMP280;69239;50.678;12.280;2023-07-20T12:37:31;97386.91;;;29.88
79756;BMP280;69239;50.678;12.280;2023-07-20T12:39:56;97380.25;;;29.80
79756;BMP280;69239;50.678;12.280;2023-07-20T12:42:22;97380.06;;;29.65
79756;BMP280;69239;50.678;12.280;2023-07-20T12:44:49;97385.88;;;29.55
79756;BMP280;69239;50.678;12.280;2023-07-20T12:47:14;97380.19;;;29.62
79756;BMP280;69239;50.678;12.280;2023-07-20T12:49:39;97382.38;;;29.85
79756;BMP280;69239;50.678;12.280;2023-07-20T12:52:05;97369.09;;;30.05
79756;BMP280;69239;50.678;12.280;2023-07-20T12:54:32;97370.34;;;30.13
79756;BMP280;69239;50.678;12.280;2023-07-20T12:56:57;97379.38;;;30.01
79756;BMP280;69239;50.678;12.280;2023-07-20T12:59:23;97376.97;;;29.94
79756;BMP280;69239;50.678;12.280;2023-07-20T13:01:48;97391.28;;;29.86
79756;BMP280;69239;50.678;12.280;2023-07-20T13:04:13;97394.69;;;29.68
79756;BMP280;69239;50.678;12.280;2023-07-20T13:06:39;97400.06;;;29.50
79756;BMP280;69239;50.678;12.280;2023-07-20T13:09:04;97389.44;;;29.34
79756;BMP280;69239;50.678;12.280;2023-07-20T13:11:30;97391.19;;;29.27
79756;BMP280;69239;50.678;12.280;2023-07-20T13:13:55;97395.41;;;29.28
79756;BMP280;69239;50.678;12.280;2023-07-20T13:16:20;97404.75;;;29.27
79756;BMP280;69239;50.678;12.280;2023-07-20T13:18:46;97399.00;;;29.16
79756;BMP280;69239;50.678;12.280;2023-07-20T13:21:11;97398.78;;;29.02
79756;BMP280;69239;50.678;12.280;2023-07-20T13:23:37;97406.53;;;28.78
79756;BMP280;69239;50.678;12.280;2023-07-20T13:26:04;97404.09;;;28.49
79756;BMP280;69239;50.678;12.280;2023-07-20T13:28:29;97413.13;;;28.21
79756;BMP280;69239;50.678;12.280;2023-07-20T13:30:55;97409.72;;;27.95
79756;BMP280;69239;50.678;12.280;2023-07-20T13:33:20;97418.50;;;27.74
79756;BMP280;69239;50.678;12.280;2023-07-20T13:35:45;97413.53;;;27.47
79756;BMP280;69239;50.678;12.280;2023-07-20T13:38:12;97419.63;;;27.22
79756;BMP280;69239;50.678;12.280;2023-07-20T13:40:37;97422.06;;;27.04
79756;BMP280;69239;50.678;12.280;2023-07-20T13:43:02;97420.28;;;26.85
79756;BMP280;69239;50.678;12.280;2023-07-20T13:45:27;97417.25;;;26.66
79756;BMP280;69239;50.678;12.280;2023-07-20T13:47:53;97413.22;;;26.58
79756;BMP280;69239;50.678;12.280;2023-07-20T13:50:18;97408.50;;;26.62
79756;BMP280;69239;50.678;12.280;2023-07-20T13:52:44;97407.47;;;26.72
79756;BMP280;69239;50.678;12.280;2023-07-20T13:55:09;97401.88;;;26.80
79756;BMP280;69239;50.678;12.280;2023-07-20T13:57:34;97407.09;;;26.87
79756;BMP280;69239;50.678;12.280;2023-07-20T13:59:59;97404.50;;;26.96
79756;BMP280;69239;50.678;12.280;2023-07-20T14:02:26;97403.88;;;26.92
79756;BMP280;69239;50.678;12.280;2023-07-20T14:04:52;97406.41;;;26.83
79756;BMP280;69239;50.678;12.280;2023-07-20T14:07:19;97406.66;;;26.88
79756;BMP280;69239;50.678;12.280;2023-07-20T14:09:45;97403.66;;;26.99
79756;BMP280;69239;50.678;12.280;2023-07-20T14:12:10;97404.28;;;27.19
79756;BMP280;69239;50.678;12.280;2023-07-20T14:14:39;97402.91;;;27.40